sensor_id;sensor_type;location;lat;lon;timestamp;temperature;humidity
15879;DHT22;61999;51.514;14.614;2022-09-09T00:02:03;9.60;70.80
15879;DHT22;61999;51.514;14.614;2022-09-09T00:04:41;9.60;70.90
15879;DHT22;61999;51.514;14.614;2022-09-09T00:07:15;9.50;70.80
15879;DHT22;61999;51.514;14.614;2022-09-09T00:09:57;9.50;70.90
15879;DHT22;61999;51.514;14.614;2022-09-09T00:12:41;9.50;70.90
15879;DHT22;61999;51.514;14.614;2022-09-09T00:15:19;9.50;70.90
15879;DHT22;61999;51.514;14.614;2022-09-09T00:17:53;9.40;70.80
15879;DHT22;61999;51.514;14.614;2022-09-09T00:20:30;9.40;71.00
15879;DHT22;61999;51.514;14.614;2022-09-09T00:23:08;9.40;71.00
15879;DHT22;61999;51.514;14.614;2022-09-09T00:25:48;9.30;71.00
15879;DHT22;61999;51.514;14.614;2022-09-09T00:28:23;9.30;71.00
15879;DHT22;61999;51.514;14.614;2022-09-09T00:30:55;9.30;71.10
15879;DHT22;61999;51.514;14.614;2022-09-09T00:33:30;9.30;71.10
15879;DHT22;61999;51.514;14.614;2022-09-09T00:36:00;9.20;71.10
15879;DHT22;61999;51.514;14.614;2022-09-09T00:38:34;9.20;71.10
15879;DHT22;61999;51.514;14.614;2022-09-09T00:41:10;9.20;71.10
15879;DHT22;61999;51.514;14.614;2022-09-09T00:43:42;9.20;71.20
15879;DHT22;61999;51.514;14.614;2022-09-09T00:46:38;9.20;71.30
15879;DHT22;61999;51.514;14.614;2022-09-09T00:49:24;9.20;71.40
15879;DHT22;61999;51.514;14.614;2022-09-09T00:52:08;9.20;71.60
15879;DHT22;61999;51.514;14.614;2022-09-09T00:54:52;9.10;71.50
15879;DHT22;61999;51.514;14.614;2022-09-09T00:57:33;9.10;71.60
15879;DHT22;61999;51.514;14.614;2022-09-09T01:00:18;9.10;71.60
15879;DHT22;61999;51.514;14.614;2022-09-09T01:02:57;9.10;71.70
15879;DHT22;61999;51.514;14.614;2022-09-09T01:05:54;9.10;72.10
15879;DHT22;61999;51.514;14.614;2022-09-09T01:08:59;9.30;72.20
15879;DHT22;61999;51.514;14.614;2022-09-09T01:11:52;9.30;72.10
15879;DHT22;61999;51.514;14.614;2022-09-09T01:14:38;9.30;72.10
15879;DHT22;61999;51.514;14.614;2022-09-09T01:17:15;9.20;71.90
15879;DHT22;61999;51.514;14.614;2022-09-09T01:19:57;9.20;71.90
15879;DHT22;61999;51.514;14.614;2022-09-09T01:22:35;9.10;71.90
15879;DHT22;61999;51.514;14.614;2022-09-09T01:25:25;9.10;71.80
15879;DHT22;61999;51.514;14.614;2022-09-09T01:28:01;9.10;71.80
15879;DHT22;61999;51.514;14.614;2022-09-09T01:30:39;9.00;71.60
15879;DHT22;61999;51.514;14.614;2022-09-09T01:33:13;9.00;71.70
15879;DHT22;61999;51.514;14.614;2022-09-09T01:35:48;9.00;71.60
15879;DHT22;61999;51.514;14.614;2022-09-09T01:38:21;8.90;71.60
15879;DHT22;61999;51.514;14.614;2022-09-09T01:40:51;8.90;71.60
15879;DHT22;61999;51.514;14.614;2022-09-09T01:43:23;8.90;71.60
15879;DHT22;61999;51.514;14.614;2022-09-09T01:45:56;8.80;71.50
15879;DHT22;61999;51.514;14.614;2022-09-09T01:48:28;8.80;71.60
15879;DHT22;61999;51.514;14.614;2022-09-09T01:50:57;8.80;71.60
15879;DHT22;61999;51.514;14.614;2022-09-09T01:53:26;8.70;71.50
15879;DHT22;61999;51.514;14.614;2022-09-09T01:56:07;8.70;71.60
15879;DHT22;61999;51.514;14.614;2022-09-09T01:58:57;8.70;71.60
15879;DHT22;61999;51.514;14.614;2022-09-09T02:01:45;8.60;71.50
15879;DHT22;61999;51.514;14.614;2022-09-09T02:04:31;8.60;71.50
15879;DHT22;61999;51.514;14.614;2022-09-09T02:07:19;8.60;71.50
15879;DHT22;61999;51.514;14.614;2022-09-09T02:10:00;8.60;71.60
15879;DHT22;61999;51.514;14.614;2022-09-09T02:12:33;8.60;71.50
15879;DHT22;61999;51.514;14.614;2022-09-09T02:15:05;8.50;71.50
15879;DHT22;61999;51.514;14.614;2022-09-09T02:17:40;8.50;71.50
15879;DHT22;61999;51.514;14.614;2022-09-09T02:20:12;8.50;71.60
15879;DHT22;61999;51.514;14.614;2022-09-09T02:22:44;8.40;71.60
15879;DHT22;61999;51.514;14.614;2022-09-09T02:25:18;8.40;71.60
15879;DHT22;61999;51.514;14.614;2022-09-09T02:27:50;8.40;71.60
15879;DHT22;61999;51.514;14.614;2022-09-09T02:30:21;8.40;71.60
15879;DHT22;61999;51.514;14.614;2022-09-09T02:32:52;8.30;71.60
15879;DHT22;61999;51.514;14.614;2022-09-09T02:35:24;8.30;71.60
15879;DHT22;61999;51.514;14.614;2022-09-09T02:37:58;8.30;71.70
15879;DHT22;61999;51.514;14.614;2022-09-09T02:40:30;8.30;71.70
15879;DHT22;61999;51.514;14.614;2022-09-09T02:42:58;8.30;71.80
15879;DHT22;61999;51.514;14.614;2022-09-09T02:45:32;8.20;71.70
15879;DHT22;61999;51.514;14.614;2022-09-09T02:48:11;8.20;71.70
15879;DHT22;61999;51.514;14.614;2022-09-09T02:50:53;8.20;71.80
15879;DHT22;61999;51.514;14.614;2022-09-09T02:53:33;8.20;71.90
15879;DHT22;61999;51.514;14.614;2022-09-09T02:56:11;8.20;71.90
15879;DHT22;61999;51.514;14.614;2022-09-09T02:58:47;8.20;72.00
15879;DHT22;61999;51.514;14.614;2022-09-09T03:01:20;8.10;71.90
15879;DHT22;61999;51.514;14.614;2022-09-09T03:03:49;8.10;71.90
15879;DHT22;61999;51.514;14.614;2022-09-09T03:06:17;8.10;71.90
15879;DHT22;61999;51.514;14.614;2022-09-09T03:08:45;8.10;71.90
15879;DHT22;61999;51.514;14.614;2022-09-09T03:11:16;8.10;71.90
15879;DHT22;61999;51.514;14.614;2022-09-09T03:13:44;8.00;71.90
15879;DHT22;61999;51.514;14.614;2022-09-09T03:16:12;8.00;71.90
15879;DHT22;61999;51.514;14.614;2022-09-09T03:18:43;8.00;72.00
15879;DHT22;61999;51.514;14.614;2022-09-09T03:21:11;8.00;72.10
15879;DHT22;61999;51.514;14.614;2022-09-09T03:23:40;8.00;72.10
15879;DHT22;61999;51.514;14.614;2022-09-09T03:26:10;8.00;72.10
15879;DHT22;61999;51.514;14.614;2022-09-09T03:28:38;8.00;72.10
15879;DHT22;61999;51.514;14.614;2022-09-09T03:31:07;7.90;72.10
15879;DHT22;61999;51.514;14.614;2022-09-09T03:33:37;7.90;72.10
15879;DHT22;61999;51.514;14.614;2022-09-09T03:36:09;7.90;72.20
15879;DHT22;61999;51.514;14.614;2022-09-09T03:38:37;7.90;72.10
15879;DHT22;61999;51.514;14.614;2022-09-09T03:41:06;7.90;72.20
15879;DHT22;61999;51.514;14.614;2022-09-09T03:43:34;7.90;72.20
15879;DHT22;61999;51.514;14.614;2022-09-09T03:46:03;7.80;72.10
15879;DHT22;61999;51.514;14.614;2022-09-09T03:48:31;7.80;72.10
15879;DHT22;61999;51.514;14.614;2022-09-09T03:50:59;7.80;72.10
15879;DHT22;61999;51.514;14.614;2022-09-09T03:53:30;7.80;72.20
15879;DHT22;61999;51.514;14.614;2022-09-09T03:56:00;7.80;72.20
15879;DHT22;61999;51.514;14.614;2022-09-09T03:58:28;7.80;72.20
15879;DHT22;61999;51.514;14.614;2022-09-09T04:00:58;7.70;72.10
15879;DHT22;61999;51.514;14.614;2022-09-09T04:03:28;7.70;72.00
15879;DHT22;61999;51.514;14.614;2022-09-09T04:05:58;7.70;72.10
15879;DHT22;61999;51.514;14.614;2022-09-09T04:08:30;7.70;72.10
15879;DHT22;61999;51.514;14.614;2022-09-09T04:11:00;7.70;72.10
15879;DHT22;61999;51.514;14.614;2022-09-09T04:13:32;7.70;72.10
15879;DHT22;61999;51.514;14.614;2022-09-09T04:16:03;7.60;72.10
15879;DHT22;61999;51.514;14.614;2022-09-09T04:18:31;7.60;72.10
15879;DHT22;61999;51.514;14.614;2022-09-09T04:21:01;7.60;73.00
15879;DHT22;61999;51.514;14.614;2022-09-09T04:23:31;7.60;72.10
15879;DHT22;61999;51.514;14.614;2022-09-09T04:26:01;7.60;72.20
15879;DHT22;61999;51.514;14.614;2022-09-09T04:28:32;7.60;72.20
15879;DHT22;61999;51.514;14.614;2022-09-09T04:31:06;7.50;72.20
15879;DHT22;61999;51.514;14.614;2022-09-09T04:33:35;7.50;72.30
15879;DHT22;61999;51.514;14.614;2022-09-09T04:36:06;7.50;72.30
15879;DHT22;61999;51.514;14.614;2022-09-09T04:38:36;7.50;72.20
15879;DHT22;61999;51.514;14.614;2022-09-09T04:41:04;7.40;71.90
15879;DHT22;61999;51.514;14.614;2022-09-09T04:43:33;7.40;72.30
15879;DHT22;61999;51.514;14.614;2022-09-09T04:46:01;7.30;73.10
15879;DHT22;61999;51.514;14.614;2022-09-09T04:48:29;7.30;73.30
15879;DHT22;61999;51.514;14.614;2022-09-09T04:50:58;7.30;73.40
15879;DHT22;61999;51.514;14.614;2022-09-09T04:53:28;7.40;73.70
15879;DHT22;61999;51.514;14.614;2022-09-09T04:56:03;7.40;73.70
15879;DHT22;61999;51.514;14.614;2022-09-09T04:58:32;7.50;73.90
15879;DHT22;61999;51.514;14.614;2022-09-09T05:01:08;7.50;74.00
15879;DHT22;61999;51.514;14.614;2022-09-09T05:03:37;7.60;74.10
15879;DHT22;61999;51.514;14.614;2022-09-09T05:06:06;7.60;74.10
15879;DHT22;61999;51.514;14.614;2022-09-09T05:08:36;7.60;74.30
15879;DHT22;61999;51.514;14.614;2022-09-09T05:11:14;7.60;73.80
15879;DHT22;61999;51.514;14.614;2022-09-09T05:13:44;7.70;74.20
15879;DHT22;61999;51.514;14.614;2022-09-09T05:16:13;7.70;74.20
15879;DHT22;61999;51.514;14.614;2022-09-09T05:18:42;7.80;74.40
15879;DHT22;61999;51.514;14.614;2022-09-09T05:21:11;7.80;74.70
15879;DHT22;61999;51.514;14.614;2022-09-09T05:23:40;7.90;74.90
15879;DHT22;61999;51.514;14.614;2022-09-09T05:26:12;7.90;75.00
15879;DHT22;61999;51.514;14.614;2022-09-09T05:28:44;8.00;75.20
15879;DHT22;61999;51.514;14.614;2022-09-09T05:31:14;8.00;75.20
15879;DHT22;61999;51.514;14.614;2022-09-09T05:33:45;8.10;75.40
15879;DHT22;61999;51.514;14.614;2022-09-09T05:36:16;8.10;75.60
15879;DHT22;61999;51.514;14.614;2022-09-09T05:38:45;8.20;75.70
15879;DHT22;61999;51.514;14.614;2022-09-09T05:41:16;8.30;75.80
15879;DHT22;61999;51.514;14.614;2022-09-09T05:43:44;8.40;75.90
15879;DHT22;61999;51.514;14.614;2022-09-09T05:46:15;8.40;76.00
15879;DHT22;61999;51.514;14.614;2022-09-09T05:48:45;8.50;75.90
15879;DHT22;61999;51.514;14.614;2022-09-09T05:51:15;8.50;76.00
15879;DHT22;61999;51.514;14.614;2022-09-09T05:53:46;8.60;76.00
15879;DHT22;61999;51.514;14.614;2022-09-09T05:56:17;8.70;76.00
15879;DHT22;61999;51.514;14.614;2022-09-09T05:58:46;8.70;76.80
15879;DHT22;61999;51.514;14.614;2022-09-09T06:01:17;8.70;76.00
15879;DHT22;61999;51.514;14.614;2022-09-09T06:03:47;8.80;76.10
15879;DHT22;61999;51.514;14.614;2022-09-09T06:06:17;8.90;76.10
15879;DHT22;61999;51.514;14.614;2022-09-09T06:08:50;8.90;76.00
15879;DHT22;61999;51.514;14.614;2022-09-09T06:11:22;8.90;76.10
15879;DHT22;61999;51.514;14.614;2022-09-09T06:13:51;9.00;76.10
15879;DHT22;61999;51.514;14.614;2022-09-09T06:16:22;9.00;76.20
15879;DHT22;61999;51.514;14.614;2022-09-09T06:18:51;9.00;76.20
15879;DHT22;61999;51.514;14.614;2022-09-09T06:21:21;9.10;76.40
15879;DHT22;61999;51.514;14.614;2022-09-09T06:23:51;9.20;76.70
15879;DHT22;61999;51.514;14.614;2022-09-09T06:26:23;9.40;75.50
15879;DHT22;61999;51.514;14.614;2022-09-09T06:28:54;9.40;74.50
15879;DHT22;61999;51.514;14.614;2022-09-09T06:31:25;9.50;76.00
15879;DHT22;61999;51.514;14.614;2022-09-09T06:33:58;9.80;74.20
15879;DHT22;61999;51.514;14.614;2022-09-09T06:36:28;10.00;73.70
15879;DHT22;61999;51.514;14.614;2022-09-09T06:38:57;10.10;73.80
15879;DHT22;61999;51.514;14.614;2022-09-09T06:41:28;10.20;73.40
15879;DHT22;61999;51.514;14.614;2022-09-09T06:43:58;10.20;72.50
15879;DHT22;61999;51.514;14.614;2022-09-09T06:46:28;10.30;72.90
15879;DHT22;61999;51.514;14.614;2022-09-09T06:48:59;10.40;73.50
15879;DHT22;61999;51.514;14.614;2022-09-09T06:51:29;10.40;73.70
15879;DHT22;61999;51.514;14.614;2022-09-09T06:53:59;10.50;73.80
15879;DHT22;61999;51.514;14.614;2022-09-09T06:56:32;10.60;74.20
15879;DHT22;61999;51.514;14.614;2022-09-09T06:59:02;10.80;73.80
15879;DHT22;61999;51.514;14.614;2022-09-09T07:01:37;10.90;73.30
15879;DHT22;61999;51.514;14.614;2022-09-09T07:04:07;11.00;72.10
15879;DHT22;61999;51.514;14.614;2022-09-09T07:06:38;11.10;72.00
15879;DHT22;61999;51.514;14.614;2022-09-09T07:09:10;11.20;73.20
15879;DHT22;61999;51.514;14.614;2022-09-09T07:11:42;11.50;72.10
15879;DHT22;61999;51.514;14.614;2022-09-09T07:14:12;11.70;71.50
15879;DHT22;61999;51.514;14.614;2022-09-09T07:16:42;11.80;72.30
15879;DHT22;61999;51.514;14.614;2022-09-09T07:19:10;12.10;71.60
15879;DHT22;61999;51.514;14.614;2022-09-09T07:21:39;12.20;71.00
15879;DHT22;61999;51.514;14.614;2022-09-09T07:24:07;12.40;71.10
15879;DHT22;61999;51.514;14.614;2022-09-09T07:26:38;12.60;69.10
15879;DHT22;61999;51.514;14.614;2022-09-09T07:29:08;12.80;65.60
15879;DHT22;61999;51.514;14.614;2022-09-09T07:31:38;13.00;64.10
15879;DHT22;61999;51.514;14.614;2022-09-09T07:34:07;13.10;64.60
15879;DHT22;61999;51.514;14.614;2022-09-09T07:36:37;13.10;63.70
15879;DHT22;61999;51.514;14.614;2022-09-09T07:39:08;13.40;61.50
15879;DHT22;61999;51.514;14.614;2022-09-09T07:41:38;13.60;60.50
15879;DHT22;61999;51.514;14.614;2022-09-09T07:44:10;13.50;61.90
15879;DHT22;61999;51.514;14.614;2022-09-09T07:46:39;13.70;60.70
15879;DHT22;61999;51.514;14.614;2022-09-09T07:49:08;13.60;62.40
15879;DHT22;61999;51.514;14.614;2022-09-09T07:51:38;13.70;61.20
15879;DHT22;61999;51.514;14.614;2022-09-09T07:54:10;13.90;60.40
15879;DHT22;61999;51.514;14.614;2022-09-09T07:56:40;14.10;59.70
15879;DHT22;61999;51.514;14.614;2022-09-09T07:59:10;14.30;58.50
15879;DHT22;61999;51.514;14.614;2022-09-09T08:01:40;14.40;58.60
15879;DHT22;61999;51.514;14.614;2022-09-09T08:04:12;14.60;56.00
15879;DHT22;61999;51.514;14.614;2022-09-09T08:06:44;14.60;56.40
15879;DHT22;61999;51.514;14.614;2022-09-09T08:09:13;14.50;58.10
15879;DHT22;61999;51.514;14.614;2022-09-09T08:11:43;14.60;56.50
15879;DHT22;61999;51.514;14.614;2022-09-09T08:14:13;14.80;56.60
15879;DHT22;61999;51.514;14.614;2022-09-09T08:16:43;14.80;56.60
15879;DHT22;61999;51.514;14.614;2022-09-09T08:19:13;15.00;54.80
15879;DHT22;61999;51.514;14.614;2022-09-09T08:21:42;15.20;53.60
15879;DHT22;61999;51.514;14.614;2022-09-09T08:24:12;15.20;56.10
15879;DHT22;61999;51.514;14.614;2022-09-09T08:26:42;15.20;54.40
15879;DHT22;61999;51.514;14.614;2022-09-09T08:29:13;15.30;54.50
15879;DHT22;61999;51.514;14.614;2022-09-09T08:31:43;15.50;53.80
15879;DHT22;61999;51.514;14.614;2022-09-09T08:34:13;15.50;52.70
15879;DHT22;61999;51.514;14.614;2022-09-09T08:36:43;15.40;51.80
15879;DHT22;61999;51.514;14.614;2022-09-09T08:39:14;15.30;53.40
15879;DHT22;61999;51.514;14.614;2022-09-09T08:42:13;15.30;52.60
15879;DHT22;61999;51.514;14.614;2022-09-09T08:45:12;15.30;53.10
15879;DHT22;61999;51.514;14.614;2022-09-09T08:47:54;15.60;52.00
15879;DHT22;61999;51.514;14.614;2022-09-09T08:50:34;15.60;52.00
15879;DHT22;61999;51.514;14.614;2022-09-09T08:53:10;15.60;51.70
15879;DHT22;61999;51.514;14.614;2022-09-09T08:55:45;15.70;52.40
15879;DHT22;61999;51.514;14.614;2022-09-09T08:58:17;15.80;51.50
15879;DHT22;61999;51.514;14.614;2022-09-09T09:01:01;15.90;52.20
15879;DHT22;61999;51.514;14.614;2022-09-09T09:03:48;16.20;50.90
15879;DHT22;61999;51.514;14.614;2022-09-09T09:06:34;16.40;51.60
15879;DHT22;61999;51.514;14.614;2022-09-09T09:09:18;16.70;50.60
15879;DHT22;61999;51.514;14.614;2022-09-09T09:11:53;17.10;48.60
15879;DHT22;61999;51.514;14.614;2022-09-09T09:14:28;17.10;49.70
15879;DHT22;61999;51.514;14.614;2022-09-09T09:17:04;17.20;49.20
15879;DHT22;61999;51.514;14.614;2022-09-09T09:19:35;17.40;47.50
15879;DHT22;61999;51.514;14.614;2022-09-09T09:22:14;17.50;49.60
15879;DHT22;61999;51.514;14.614;2022-09-09T09:24:51;17.70;49.30
15879;DHT22;61999;51.514;14.614;2022-09-09T09:27:28;18.00;47.90
15879;DHT22;61999;51.514;14.614;2022-09-09T09:30:12;18.40;47.60
15879;DHT22;61999;51.514;14.614;2022-09-09T09:32:53;18.70;45.00
15879;DHT22;61999;51.514;14.614;2022-09-09T09:35:23;18.80;45.40
15879;DHT22;61999;51.514;14.614;2022-09-09T09:37:51;18.90;45.30
15879;DHT22;61999;51.514;14.614;2022-09-09T09:40:48;19.10;46.00
15879;DHT22;61999;51.514;14.614;2022-09-09T09:43:24;19.50;44.50
15879;DHT22;61999;51.514;14.614;2022-09-09T09:45:54;19.60;43.10
15879;DHT22;61999;51.514;14.614;2022-09-09T09:48:41;19.60;44.10
15879;DHT22;61999;51.514;14.614;2022-09-09T09:51:11;19.70;44.50
15879;DHT22;61999;51.514;14.614;2022-09-09T09:53:42;19.90;45.40
15879;DHT22;61999;51.514;14.614;2022-09-09T09:56:12;20.10;43.70
15879;DHT22;61999;51.514;14.614;2022-09-09T09:58:49;20.20;43.80
15879;DHT22;61999;51.514;14.614;2022-09-09T10:01:21;20.20;42.50
15879;DHT22;61999;51.514;14.614;2022-09-09T10:03:53;19.90;42.50
15879;DHT22;61999;51.514;14.614;2022-09-09T10:06:32;19.80;44.00
15879;DHT22;61999;51.514;14.614;2022-09-09T10:09:02;19.90;46.10
15879;DHT22;61999;51.514;14.614;2022-09-09T10:11:45;20.20;41.80
15879;DHT22;61999;51.514;14.614;2022-09-09T10:14:21;20.40;41.90
15879;DHT22;61999;51.514;14.614;2022-09-09T10:17:16;20.40;41.20
15879;DHT22;61999;51.514;14.614;2022-09-09T10:20:10;20.20;43.00
15879;DHT22;61999;51.514;14.614;2022-09-09T10:22:50;20.40;41.50
15879;DHT22;61999;51.514;14.614;2022-09-09T10:25:29;20.40;41.90
15879;DHT22;61999;51.514;14.614;2022-09-09T10:28:24;20.50;43.20
15879;DHT22;61999;51.514;14.614;2022-09-09T10:31:20;20.60;43.10
15879;DHT22;61999;51.514;14.614;2022-09-09T10:34:00;21.00;42.50
15879;DHT22;61999;51.514;14.614;2022-09-09T10:36:43;21.40;42.40
15879;DHT22;61999;51.514;14.614;2022-09-09T10:39:32;21.80;40.40
15879;DHT22;61999;51.514;14.614;2022-09-09T10:42:11;21.90;38.00
15879;DHT22;61999;51.514;14.614;2022-09-09T10:44:53;21.70;39.50
15879;DHT22;61999;51.514;14.614;2022-09-09T10:47:59;21.50;38.30
15879;DHT22;61999;51.514;14.614;2022-09-09T10:50:52;21.20;38.80
15879;DHT22;61999;51.514;14.614;2022-09-09T10:53:41;20.90;38.30
15879;DHT22;61999;51.514;14.614;2022-09-09T10:56:24;20.30;39.30
15879;DHT22;61999;51.514;14.614;2022-09-09T10:58:58;19.70;40.20
15879;DHT22;61999;51.514;14.614;2022-09-09T11:01:31;19.00;41.60
15879;DHT22;61999;51.514;14.614;2022-09-09T11:04:10;18.20;43.60
15879;DHT22;61999;51.514;14.614;2022-09-09T11:06:49;17.00;47.80
15879;DHT22;61999;51.514;14.614;2022-09-09T11:09:24;15.70;55.40
15879;DHT22;61999;51.514;14.614;2022-09-09T11:11:58;14.60;62.10
15879;DHT22;61999;51.514;14.614;2022-09-09T11:14:31;13.50;67.10
15879;DHT22;61999;51.514;14.614;2022-09-09T11:17:10;12.60;70.00
15879;DHT22;61999;51.514;14.614;2022-09-09T11:19:42;12.30;71.50
15879;DHT22;61999;51.514;14.614;2022-09-09T11:22:20;12.20;72.90
15879;DHT22;61999;51.514;14.614;2022-09-09T11:24:57;12.10;73.70
15879;DHT22;61999;51.514;14.614;2022-09-09T11:27:31;12.20;75.30
15879;DHT22;61999;51.514;14.614;2022-09-09T11:30:18;12.30;76.60
15879;DHT22;61999;51.514;14.614;2022-09-09T11:33:26;12.40;76.70
15879;DHT22;61999;51.514;14.614;2022-09-09T11:36:43;12.60;77.20
15879;DHT22;61999;51.514;14.614;2022-09-09T11:39:48;12.90;77.90
15879;DHT22;61999;51.514;14.614;2022-09-09T11:42:31;13.30;79.90
15879;DHT22;61999;51.514;14.614;2022-09-09T11:45:09;13.70;83.90
15879;DHT22;61999;51.514;14.614;2022-09-09T11:47:39;14.00;83.30
15879;DHT22;61999;51.514;14.614;2022-09-09T11:50:09;14.40;82.60
15879;DHT22;61999;51.514;14.614;2022-09-09T11:53:17;14.60;82.60
15879;DHT22;61999;51.514;14.614;2022-09-09T11:56:03;15.10;83.60
15879;DHT22;61999;51.514;14.614;2022-09-09T11:58:38;15.60;80.70
15879;DHT22;61999;51.514;14.614;2022-09-09T12:01:28;16.20;81.30
15879;DHT22;61999;51.514;14.614;2022-09-09T12:04:25;16.80;78.70
15879;DHT22;61999;51.514;14.614;2022-09-09T12:06:59;17.40;82.00
15879;DHT22;61999;51.514;14.614;2022-09-09T12:09:43;18.20;81.90
15879;DHT22;61999;51.514;14.614;2022-09-09T12:12:29;18.90;84.60
15879;DHT22;61999;51.514;14.614;2022-09-09T12:15:18;19.80;72.30
15879;DHT22;61999;51.514;14.614;2022-09-09T12:17:50;20.70;82.10
15879;DHT22;61999;51.514;14.614;2022-09-09T12:20:21;21.60;77.00
15879;DHT22;61999;51.514;14.614;2022-09-09T12:23:10;22.20;78.40
15879;DHT22;61999;51.514;14.614;2022-09-09T12:26:03;23.00;74.50
15879;DHT22;61999;51.514;14.614;2022-09-09T12:28:49;23.90;57.50
15879;DHT22;61999;51.514;14.614;2022-09-09T12:31:28;24.40;66.20
15879;DHT22;61999;51.514;14.614;2022-09-09T12:34:10;24.90;68.60
15879;DHT22;61999;51.514;14.614;2022-09-09T12:36:42;25.30;48.90
15879;DHT22;61999;51.514;14.614;2022-09-09T12:39:19;25.70;43.10
15879;DHT22;61999;51.514;14.614;2022-09-09T12:41:51;26.00;46.30
15879;DHT22;61999;51.514;14.614;2022-09-09T12:44:26;26.30;50.80
15879;DHT22;61999;51.514;14.614;2022-09-09T12:46:56;26.90;54.50
15879;DHT22;61999;51.514;14.614;2022-09-09T12:49:30;27.20;46.60
15879;DHT22;61999;51.514;14.614;2022-09-09T12:52:03;27.60;51.00
15879;DHT22;61999;51.514;14.614;2022-09-09T12:54:35;27.60;50.60
15879;DHT22;61999;51.514;14.614;2022-09-09T12:57:05;27.60;46.90
15879;DHT22;61999;51.514;14.614;2022-09-09T12:59:41;27.10;48.80
15879;DHT22;61999;51.514;14.614;2022-09-09T13:02:18;26.70;44.60
15879;DHT22;61999;51.514;14.614;2022-09-09T13:04:49;26.00;46.80
15879;DHT22;61999;51.514;14.614;2022-09-09T13:07:18;25.40;49.30
15879;DHT22;61999;51.514;14.614;2022-09-09T13:09:49;24.80;52.70
15879;DHT22;61999;51.514;14.614;2022-09-09T13:12:19;24.30;48.20
15879;DHT22;61999;51.514;14.614;2022-09-09T13:14:52;23.90;49.80
15879;DHT22;61999;51.514;14.614;2022-09-09T13:17:25;23.50;54.60
15879;DHT22;61999;51.514;14.614;2022-09-09T13:19:55;23.30;56.90
15879;DHT22;61999;51.514;14.614;2022-09-09T13:22:29;23.30;56.10
15879;DHT22;61999;51.514;14.614;2022-09-09T13:25:02;23.40;60.50
15879;DHT22;61999;51.514;14.614;2022-09-09T13:27:33;23.70;59.90
15879;DHT22;61999;51.514;14.614;2022-09-09T13:30:22;24.20;61.40
15879;DHT22;61999;51.514;14.614;2022-09-09T13:33:03;24.90;61.50
15879;DHT22;61999;51.514;14.614;2022-09-09T13:35:47;25.50;62.20
15879;DHT22;61999;51.514;14.614;2022-09-09T13:38:17;25.90;58.90
15879;DHT22;61999;51.514;14.614;2022-09-09T13:40:56;26.30;58.00
15879;DHT22;61999;51.514;14.614;2022-09-09T13:43:29;26.80;49.70
15879;DHT22;61999;51.514;14.614;2022-09-09T13:46:23;27.20;51.80
15879;DHT22;61999;51.514;14.614;2022-09-09T13:48:55;27.60;57.00
15879;DHT22;61999;51.514;14.614;2022-09-09T13:51:32;28.00;43.30
15879;DHT22;61999;51.514;14.614;2022-09-09T13:54:04;28.20;37.30
15879;DHT22;61999;51.514;14.614;2022-09-09T13:56:33;28.70;47.00
15879;DHT22;61999;51.514;14.614;2022-09-09T13:59:03;29.40;41.30
15879;DHT22;61999;51.514;14.614;2022-09-09T14:01:33;29.70;49.90
15879;DHT22;61999;51.514;14.614;2022-09-09T14:04:02;30.20;33.80
15879;DHT22;61999;51.514;14.614;2022-09-09T14:06:30;30.60;32.40
15879;DHT22;61999;51.514;14.614;2022-09-09T14:08:59;30.70;31.90
15879;DHT22;61999;51.514;14.614;2022-09-09T14:11:27;30.60;40.10
15879;DHT22;61999;51.514;14.614;2022-09-09T14:13:55;30.10;31.80
15879;DHT22;61999;51.514;14.614;2022-09-09T14:16:24;29.80;35.60
15879;DHT22;61999;51.514;14.614;2022-09-09T14:18:55;29.40;33.20
15879;DHT22;61999;51.514;14.614;2022-09-09T14:21:23;29.00;31.60
15879;DHT22;61999;51.514;14.614;2022-09-09T14:23:51;28.40;32.70
15879;DHT22;61999;51.514;14.614;2022-09-09T14:26:20;28.40;41.10
15879;DHT22;61999;51.514;14.614;2022-09-09T14:28:49;28.40;40.40
15879;DHT22;61999;51.514;14.614;2022-09-09T14:31:20;28.30;41.00
15879;DHT22;61999;51.514;14.614;2022-09-09T14:33:48;27.90;35.30
15879;DHT22;61999;51.514;14.614;2022-09-09T14:36:18;27.90;34.40
15879;DHT22;61999;51.514;14.614;2022-09-09T14:38:47;27.80;37.80
15879;DHT22;61999;51.514;14.614;2022-09-09T14:41:16;27.80;38.20
15879;DHT22;61999;51.514;14.614;2022-09-09T14:43:46;27.90;35.70
15879;DHT22;61999;51.514;14.614;2022-09-09T14:46:16;27.90;41.00
15879;DHT22;61999;51.514;14.614;2022-09-09T14:48:46;28.20;36.50
15879;DHT22;61999;51.514;14.614;2022-09-09T14:51:16;28.50;36.70
15879;DHT22;61999;51.514;14.614;2022-09-09T14:53:51;28.40;35.80
15879;DHT22;61999;51.514;14.614;2022-09-09T14:56:22;28.20;39.20
15879;DHT22;61999;51.514;14.614;2022-09-09T14:58:53;28.00;34.40
15879;DHT22;61999;51.514;14.614;2022-09-09T15:01:22;27.80;39.40
15879;DHT22;61999;51.514;14.614;2022-09-09T15:03:55;27.40;35.10
15879;DHT22;61999;51.514;14.614;2022-09-09T15:06:28;26.90;33.60
15879;DHT22;61999;51.514;14.614;2022-09-09T15:08:59;26.40;32.30
15879;DHT22;61999;51.514;14.614;2022-09-09T15:11:30;26.00;36.10
15879;DHT22;61999;51.514;14.614;2022-09-09T15:14:04;25.90;36.90
15879;DHT22;61999;51.514;14.614;2022-09-09T15:16:34;25.50;37.10
15879;DHT22;61999;51.514;14.614;2022-09-09T15:19:03;25.20;34.50
15879;DHT22;61999;51.514;14.614;2022-09-09T15:21:35;24.80;37.70
15879;DHT22;61999;51.514;14.614;2022-09-09T15:24:04;24.50;34.90
15879;DHT22;61999;51.514;14.614;2022-09-09T15:26:34;24.00;37.60
15879;DHT22;61999;51.514;14.614;2022-09-09T15:29:05;24.00;39.80
15879;DHT22;61999;51.514;14.614;2022-09-09T15:31:34;23.70;38.00
15879;DHT22;61999;51.514;14.614;2022-09-09T15:34:03;23.40;42.10
15879;DHT22;61999;51.514;14.614;2022-09-09T15:36:35;23.20;38.40
15879;DHT22;61999;51.514;14.614;2022-09-09T15:39:06;22.50;40.30
15879;DHT22;61999;51.514;14.614;2022-09-09T15:41:36;22.50;42.20
15879;DHT22;61999;51.514;14.614;2022-09-09T15:44:04;22.30;41.10
15879;DHT22;61999;51.514;14.614;2022-09-09T15:46:34;22.00;41.80
15879;DHT22;61999;51.514;14.614;2022-09-09T15:49:05;21.60;41.80
15879;DHT22;61999;51.514;14.614;2022-09-09T15:51:38;21.40;42.00
15879;DHT22;61999;51.514;14.614;2022-09-09T15:54:10;21.30;42.50
15879;DHT22;61999;51.514;14.614;2022-09-09T15:56:40;21.20;44.30
15879;DHT22;61999;51.514;14.614;2022-09-09T15:59:08;20.80;45.70
15879;DHT22;61999;51.514;14.614;2022-09-09T16:01:37;20.50;45.90
15879;DHT22;61999;51.514;14.614;2022-09-09T16:04:05;20.20;46.80
15879;DHT22;61999;51.514;14.614;2022-09-09T16:06:34;19.40;48.30
15879;DHT22;61999;51.514;14.614;2022-09-09T16:09:05;18.80;49.00